sensor_id;sensor_type;location;lat;lon;timestamp;P1;durP1;ratioP1;P2;durP2;ratioP2
23720;SDS011;42950;52.134;5.578;2022-10-17T00:00:25;6.88;;;4.90;;
23720;SDS011;42950;52.134;5.578;2022-10-17T00:02:53;7.03;;;4.90;;
23720;SDS011;42950;52.134;5.578;2022-10-17T00:05:20;7.18;;;5.15;;
23720;SDS011;42950;52.134;5.578;2022-10-17T00:07:45;7.97;;;5.63;;
23720;SDS011;42950;52.134;5.578;2022-10-17T00:10:12;7.97;;;4.97;;
23720;SDS011;42950;52.134;5.578;2022-10-17T00:12:39;5.82;;;5.03;;
23720;SDS011;42950;52.134;5.578;2022-10-17T00:15:05;6.60;;;5.40;;
23720;SDS011;42950;52.134;5.578;2022-10-17T00:17:32;7.32;;;5.32;;
23720;SDS011;42950;52.134;5.578;2022-10-17T00:20:00;8.52;;;5.63;;
23720;SDS011;42950;52.134;5.578;2022-10-17T00:22:27;10.07;;;6.05;;
23720;SDS011;42950;52.134;5.578;2022-10-17T00:24:52;6.75;;;5.85;;
23720;SDS011;42950;52.134;5.578;2022-10-17T00:27:18;10.70;;;5.43;;
23720;SDS011;42950;52.134;5.578;2022-10-17T00:29:47;8.52;;;6.60;;
23720;SDS011;42950;52.134;5.578;2022-10-17T00:32:15;8.45;;;6.57;;
23720;SDS011;42950;52.134;5.578;2022-10-17T00:34:43;8.07;;;7.05;;
23720;SDS011;42950;52.134;5.578;2022-10-17T00:37:10;10.20;;;7.55;;
23720;SDS011;42950;52.134;5.578;2022-10-17T00:39:36;8.38;;;7.15;;
23720;SDS011;42950;52.134;5.578;2022-10-17T00:42:02;10.02;;;7.30;;
23720;SDS011;42950;52.134;5.578;2022-10-17T00:47:13;10.23;;;7.22;;
23720;SDS011;42950;52.134;5.578;2022-10-17T00:49:43;10.30;;;7.35;;
23720;SDS011;42950;52.134;5.578;2022-10-17T00:52:20;9.85;;;6.50;;
23720;SDS011;42950;52.134;5.578;2022-10-17T00:54:47;8.35;;;7.47;;
23720;SDS011;42950;52.134;5.578;2022-10-17T00:57:17;7.82;;;7.03;;
23720;SDS011;42950;52.134;5.578;2022-10-17T00:59:44;8.50;;;6.80;;
23720;SDS011;42950;52.134;5.578;2022-10-17T01:02:15;8.27;;;6.80;;
23720;SDS011;42950;52.134;5.578;2022-10-17T01:04:43;11.48;;;7.97;;
23720;SDS011;42950;52.134;5.578;2022-10-17T01:07:10;10.55;;;7.38;;
23720;SDS011;42950;52.134;5.578;2022-10-17T01:09:37;11.20;;;7.35;;
23720;SDS011;42950;52.134;5.578;2022-10-17T01:31:29;11.07;;;8.38;;
23720;SDS011;42950;52.134;5.578;2022-10-17T01:34:03;9.50;;;8.60;;
23720;SDS011;42950;52.134;5.578;2022-10-17T01:39:18;10.27;;;8.85;;
23720;SDS011;42950;52.134;5.578;2022-10-17T01:41:57;10.43;;;8.77;;
23720;SDS011;42950;52.134;5.578;2022-10-17T01:47:29;9.95;;;8.95;;
23720;SDS011;42950;52.134;5.578;2022-10-17T01:49:59;13.02;;;9.27;;
23720;SDS011;42950;52.134;5.578;2022-10-17T01:52:50;13.18;;;9.55;;
23720;SDS011;42950;52.134;5.578;2022-10-17T01:55:20;10.75;;;9.50;;
23720;SDS011;42950;52.134;5.578;2022-10-17T01:57:50;10.77;;;9.40;;
23720;SDS011;42950;52.134;5.578;2022-10-17T02:00:22;11.30;;;9.88;;
23720;SDS011;42950;52.134;5.578;2022-10-17T02:02:52;11.32;;;9.90;;
23720;SDS011;42950;52.134;5.578;2022-10-17T02:05:23;11.43;;;10.30;;
23720;SDS011;42950;52.134;5.578;2022-10-17T02:07:53;14.30;;;10.05;;
23720;SDS011;42950;52.134;5.578;2022-10-17T02:10:22;11.55;;;10.15;;
23720;SDS011;42950;52.134;5.578;2022-10-17T02:13:08;12.85;;;10.23;;
23720;SDS011;42950;52.134;5.578;2022-10-17T02:18:14;12.07;;;10.45;;
23720;SDS011;42950;52.134;5.578;2022-10-17T02:21:06;15.05;;;10.15;;
23720;SDS011;42950;52.134;5.578;2022-10-17T02:23:37;11.55;;;10.25;;
23720;SDS011;42950;52.134;5.578;2022-10-17T02:26:16;15.98;;;10.20;;
23720;SDS011;42950;52.134;5.578;2022-10-17T02:31:24;13.55;;;10.82;;
23720;SDS011;42950;52.134;5.578;2022-10-17T02:33:57;11.75;;;10.10;;
23720;SDS011;42950;52.134;5.578;2022-10-17T02:36:28;13.02;;;10.27;;
23720;SDS011;42950;52.134;5.578;2022-10-17T02:38:58;12.25;;;10.95;;
23720;SDS011;42950;52.134;5.578;2022-10-17T02:41:27;14.45;;;11.13;;
23720;SDS011;42950;52.134;5.578;2022-10-17T02:43:54;13.13;;;10.35;;
23720;SDS011;42950;52.134;5.578;2022-10-17T02:46:20;11.00;;;10.00;;
23720;SDS011;42950;52.134;5.578;2022-10-17T02:51:32;15.88;;;11.10;;
23720;SDS011;42950;52.134;5.578;2022-10-17T02:54:31;12.25;;;11.00;;
23720;SDS011;42950;52.134;5.578;2022-10-17T02:56:57;17.52;;;11.68;;
23720;SDS011;42950;52.134;5.578;2022-10-17T02:59:27;13.18;;;11.80;;
23720;SDS011;42950;52.134;5.578;2022-10-17T03:01:54;15.65;;;11.73;;
23720;SDS011;42950;52.134;5.578;2022-10-17T03:04:20;11.88;;;10.70;;
23720;SDS011;42950;52.134;5.578;2022-10-17T03:06:46;12.60;;;10.63;;
23720;SDS011;42950;52.134;5.578;2022-10-17T03:09:13;14.13;;;10.63;;
23720;SDS011;42950;52.134;5.578;2022-10-17T03:11:40;12.40;;;11.13;;
23720;SDS011;42950;52.134;5.578;2022-10-17T03:14:05;14.65;;;10.27;;
23720;SDS011;42950;52.134;5.578;2022-10-17T03:16:31;11.57;;;10.38;;
23720;SDS011;42950;52.134;5.578;2022-10-17T03:18:57;15.00;;;10.18;;
23720;SDS011;42950;52.134;5.578;2022-10-17T03:21:22;10.63;;;9.60;;
23720;SDS011;42950;52.134;5.578;2022-10-17T03:23:48;12.05;;;10.20;;
23720;SDS011;42950;52.134;5.578;2022-10-17T03:26:14;11.18;;;10.18;;
23720;SDS011;42950;52.134;5.578;2022-10-17T03:28:39;11.00;;;9.93;;
23720;SDS011;42950;52.134;5.578;2022-10-17T03:31:08;10.73;;;9.63;;
23720;SDS011;42950;52.134;5.578;2022-10-17T03:33:36;12.25;;;10.30;;
23720;SDS011;42950;52.134;5.578;2022-10-17T03:36:08;10.48;;;9.48;;
23720;SDS011;42950;52.134;5.578;2022-10-17T03:38:36;12.15;;;9.88;;
23720;SDS011;42950;52.134;5.578;2022-10-17T03:41:03;11.38;;;9.95;;
23720;SDS011;42950;52.134;5.578;2022-10-17T03:43:29;15.23;;;10.32;;
23720;SDS011;42950;52.134;5.578;2022-10-17T03:45:55;10.77;;;9.30;;
23720;SDS011;42950;52.134;5.578;2022-10-17T03:48:22;11.85;;;9.63;;
23720;SDS011;42950;52.134;5.578;2022-10-17T03:50:49;11.35;;;9.70;;
23720;SDS011;42950;52.134;5.578;2022-10-17T03:53:14;12.40;;;9.55;;
23720;SDS011;42950;52.134;5.578;2022-10-17T03:55:40;11.10;;;9.93;;
23720;SDS011;42950;52.134;5.578;2022-10-17T03:58:06;12.02;;;9.80;;
23720;SDS011;42950;52.134;5.578;2022-10-17T04:00:32;11.23;;;10.13;;
23720;SDS011;42950;52.134;5.578;2022-10-17T04:03:00;11.63;;;10.35;;
23720;SDS011;42950;52.134;5.578;2022-10-17T04:05:26;13.93;;;9.82;;
23720;SDS011;42950;52.134;5.578;2022-10-17T04:07:51;13.75;;;9.90;;
23720;SDS011;42950;52.134;5.578;2022-10-17T04:10:19;12.38;;;9.73;;
23720;SDS011;42950;52.134;5.578;2022-10-17T04:12:45;11.77;;;9.55;;
23720;SDS011;42950;52.134;5.578;2022-10-17T04:15:10;12.38;;;9.57;;
23720;SDS011;42950;52.134;5.578;2022-10-17T04:17:37;10.52;;;9.50;;
23720;SDS011;42950;52.134;5.578;2022-10-17T04:20:03;13.40;;;9.57;;
23720;SDS011;42950;52.134;5.578;2022-10-17T04:22:29;12.23;;;10.52;;
23720;SDS011;42950;52.134;5.578;2022-10-17T04:24:54;11.60;;;9.65;;
23720;SDS011;42950;52.134;5.578;2022-10-17T04:27:20;12.00;;;9.05;;
23720;SDS011;42950;52.134;5.578;2022-10-17T04:29:45;14.32;;;9.98;;
23720;SDS011;42950;52.134;5.578;2022-10-17T04:32:11;11.10;;;9.80;;
23720;SDS011;42950;52.134;5.578;2022-10-17T04:34:38;12.80;;;9.73;;
23720;SDS011;42950;52.134;5.578;2022-10-17T04:37:03;12.57;;;9.68;;
23720;SDS011;42950;52.134;5.578;2022-10-17T04:39:29;10.80;;;9.63;;
23720;SDS011;42950;52.134;5.578;2022-10-17T04:41:55;10.48;;;9.40;;
23720;SDS011;42950;52.134;5.578;2022-10-17T04:44:20;12.63;;;9.48;;
23720;SDS011;42950;52.134;5.578;2022-10-17T04:46:46;10.32;;;9.23;;
23720;SDS011;42950;52.134;5.578;2022-10-17T04:49:12;12.00;;;10.20;;
23720;SDS011;42950;52.134;5.578;2022-10-17T04:51:38;13.50;;;8.77;;
23720;SDS011;42950;52.134;5.578;2022-10-17T04:54:04;15.98;;;9.75;;
23720;SDS011;42950;52.134;5.578;2022-10-17T04:56:30;13.95;;;9.82;;
23720;SDS011;42950;52.134;5.578;2022-10-17T04:58:56;13.73;;;9.57;;
23720;SDS011;42950;52.134;5.578;2022-10-17T05:01:24;11.93;;;10.15;;
23720;SDS011;42950;52.134;5.578;2022-10-17T05:03:51;11.50;;;9.35;;
23720;SDS011;42950;52.134;5.578;2022-10-17T05:06:18;12.07;;;9.60;;
23720;SDS011;42950;52.134;5.578;2022-10-17T05:08:45;10.15;;;8.95;;
23720;SDS011;42950;52.134;5.578;2022-10-17T05:13:54;16.00;;;9.93;;
23720;SDS011;42950;52.134;5.578;2022-10-17T05:16:22;12.57;;;9.65;;
23720;SDS011;42950;52.134;5.578;2022-10-17T05:18:49;12.38;;;9.45;;
23720;SDS011;42950;52.134;5.578;2022-10-17T05:21:17;12.52;;;9.30;;
23720;SDS011;42950;52.134;5.578;2022-10-17T05:23:43;12.75;;;9.50;;
23720;SDS011;42950;52.134;5.578;2022-10-17T05:26:09;9.98;;;8.68;;
23720;SDS011;42950;52.134;5.578;2022-10-17T05:28:35;12.60;;;9.40;;
23720;SDS011;42950;52.134;5.578;2022-10-17T05:31:02;12.43;;;9.32;;
23720;SDS011;42950;52.134;5.578;2022-10-17T05:33:28;9.93;;;8.93;;
23720;SDS011;42950;52.134;5.578;2022-10-17T05:35:54;13.23;;;9.90;;
23720;SDS011;42950;52.134;5.578;2022-10-17T05:38:21;11.30;;;8.90;;
23720;SDS011;42950;52.134;5.578;2022-10-17T05:40:47;14.02;;;8.68;;
23720;SDS011;42950;52.134;5.578;2022-10-17T05:43:12;11.77;;;9.18;;
23720;SDS011;42950;52.134;5.578;2022-10-17T05:45:39;12.82;;;9.65;;
23720;SDS011;42950;52.134;5.578;2022-10-17T05:48:05;9.95;;;8.90;;
23720;SDS011;42950;52.134;5.578;2022-10-17T05:50:31;13.23;;;9.80;;
23720;SDS011;42950;52.134;5.578;2022-10-17T05:52:56;10.32;;;9.25;;
23720;SDS011;42950;52.134;5.578;2022-10-17T05:55:23;13.10;;;9.52;;
23720;SDS011;42950;52.134;5.578;2022-10-17T05:57:49;10.35;;;9.35;;
23720;SDS011;42950;52.134;5.578;2022-10-17T06:00:17;12.23;;;10.10;;
23720;SDS011;42950;52.134;5.578;2022-10-17T06:02:43;13.40;;;9.35;;
23720;SDS011;42950;52.134;5.578;2022-10-17T06:05:10;12.30;;;9.98;;
23720;SDS011;42950;52.134;5.578;2022-10-17T06:07:36;12.23;;;9.75;;
23720;SDS011;42950;52.134;5.578;2022-10-17T06:10:02;14.18;;;9.25;;
23720;SDS011;42950;52.134;5.578;2022-10-17T06:12:28;10.27;;;9.38;;
23720;SDS011;42950;52.134;5.578;2022-10-17T06:14:53;15.52;;;9.38;;
23720;SDS011;42950;52.134;5.578;2022-10-17T06:17:20;15.57;;;9.63;;
23720;SDS011;42950;52.134;5.578;2022-10-17T06:19:45;11.18;;;9.45;;
23720;SDS011;42950;52.134;5.578;2022-10-17T06:22:11;12.10;;;8.85;;
23720;SDS011;42950;52.134;5.578;2022-10-17T06:24:37;10.73;;;9.25;;
23720;SDS011;42950;52.134;5.578;2022-10-17T06:27:03;12.15;;;9.30;;
23720;SDS011;42950;52.134;5.578;2022-10-17T06:29:29;14.40;;;9.05;;
23720;SDS011;42950;52.134;5.578;2022-10-17T06:31:55;12.90;;;9.73;;
23720;SDS011;42950;52.134;5.578;2022-10-17T06:34:21;15.30;;;10.05;;
23720;SDS011;42950;52.134;5.578;2022-10-17T06:36:47;11.82;;;10.05;;
23720;SDS011;42950;52.134;5.578;2022-10-17T06:39:15;15.82;;;10.25;;
23720;SDS011;42950;52.134;5.578;2022-10-17T06:41:40;14.40;;;9.77;;
23720;SDS011;42950;52.134;5.578;2022-10-17T06:44:08;16.88;;;10.23;;
23720;SDS011;42950;52.134;5.578;2022-10-17T06:46:37;12.48;;;9.35;;
23720;SDS011;42950;52.134;5.578;2022-10-17T06:49:04;10.52;;;9.45;;
23720;SDS011;42950;52.134;5.578;2022-10-17T06:51:38;11.50;;;9.82;;
23720;SDS011;42950;52.134;5.578;2022-10-17T06:54:06;14.52;;;9.98;;
23720;SDS011;42950;52.134;5.578;2022-10-17T06:56:32;15.65;;;9.88;;
23720;SDS011;42950;52.134;5.578;2022-10-17T06:58:57;14.73;;;9.80;;
23720;SDS011;42950;52.134;5.578;2022-10-17T07:01:23;12.20;;;9.45;;
23720;SDS011;42950;52.134;5.578;2022-10-17T07:03:49;13.40;;;9.80;;
23720;SDS011;42950;52.134;5.578;2022-10-17T07:06:14;12.18;;;9.77;;
23720;SDS011;42950;52.134;5.578;2022-10-17T07:08:43;13.93;;;9.65;;
23720;SDS011;42950;52.134;5.578;2022-10-17T07:11:14;16.33;;;10.32;;
23720;SDS011;42950;52.134;5.578;2022-10-17T07:13:41;10.27;;;9.25;;
23720;SDS011;42950;52.134;5.578;2022-10-17T07:16:07;15.88;;;9.77;;
23720;SDS011;42950;52.134;5.578;2022-10-17T07:18:33;12.68;;;9.80;;
23720;SDS011;42950;52.134;5.578;2022-10-17T07:20:59;10.85;;;9.65;;
23720;SDS011;42950;52.134;5.578;2022-10-17T07:23:25;11.60;;;9.25;;
23720;SDS011;42950;52.134;5.578;2022-10-17T07:25:51;13.23;;;9.25;;
23720;SDS011;42950;52.134;5.578;2022-10-17T07:28:17;12.35;;;9.63;;
23720;SDS011;42950;52.134;5.578;2022-10-17T07:30:49;12.90;;;9.43;;
23720;SDS011;42950;52.134;5.578;2022-10-17T07:33:15;10.90;;;9.10;;
23720;SDS011;42950;52.134;5.578;2022-10-17T07:35:40;13.40;;;8.85;;
23720;SDS011;42950;52.134;5.578;2022-10-17T07:38:07;13.10;;;8.60;;
23720;SDS011;42950;52.134;5.578;2022-10-17T07:40:34;10.30;;;9.30;;
23720;SDS011;42950;52.134;5.578;2022-10-17T07:43:00;13.45;;;9.38;;
23720;SDS011;42950;52.134;5.578;2022-10-17T07:45:25;13.20;;;9.02;;
23720;SDS011;42950;52.134;5.578;2022-10-17T07:47:54;10.18;;;8.90;;
23720;SDS011;42950;52.134;5.578;2022-10-17T07:50:22;11.27;;;8.73;;
23720;SDS011;42950;52.134;5.578;2022-10-17T07:52:48;10.88;;;8.77;;
23720;SDS011;42950;52.134;5.578;2022-10-17T07:55:16;14.07;;;9.07;;
23720;SDS011;42950;52.134;5.578;2022-10-17T07:57:42;14.93;;;9.57;;
23720;SDS011;42950;52.134;5.578;2022-10-17T08:00:07;10.90;;;9.10;;
23720;SDS011;42950;52.134;5.578;2022-10-17T08:02:34;12.65;;;9.32;;
23720;SDS011;42950;52.134;5.578;2022-10-17T08:04:59;15.88;;;9.45;;
23720;SDS011;42950;52.134;5.578;2022-10-17T08:07:25;12.60;;;9.07;;
23720;SDS011;42950;52.134;5.578;2022-10-17T08:09:51;11.48;;;9.40;;
23720;SDS011;42950;52.134;5.578;2022-10-17T08:12:17;11.75;;;8.98;;
23720;SDS011;42950;52.134;5.578;2022-10-17T08:14:43;13.63;;;9.02;;
23720;SDS011;42950;52.134;5.578;2022-10-17T08:17:08;14.05;;;9.20;;
23720;SDS011;42950;52.134;5.578;2022-10-17T08:19:37;13.55;;;9.60;;
23720;SDS011;42950;52.134;5.578;2022-10-17T08:22:04;17.25;;;8.80;;
23720;SDS011;42950;52.134;5.578;2022-10-17T08:24:30;12.43;;;9.30;;
23720;SDS011;42950;52.134;5.578;2022-10-17T08:26:56;13.63;;;9.48;;
23720;SDS011;42950;52.134;5.578;2022-10-17T08:29:22;13.40;;;10.02;;
23720;SDS011;42950;52.134;5.578;2022-10-17T08:31:49;14.15;;;9.45;;
23720;SDS011;42950;52.134;5.578;2022-10-17T08:34:16;13.73;;;9.93;;
23720;SDS011;42950;52.134;5.578;2022-10-17T08:36:42;10.93;;;9.65;;
23720;SDS011;42950;52.134;5.578;2022-10-17T08:39:08;11.13;;;9.90;;
23720;SDS011;42950;52.134;5.578;2022-10-17T08:47:25;11.63;;;9.43;;
23720;SDS011;42950;52.134;5.578;2022-10-17T08:49:57;13.35;;;9.98;;
23720;SDS011;42950;52.134;5.578;2022-10-17T08:52:29;13.48;;;9.48;;
23720;SDS011;42950;52.134;5.578;2022-10-17T08:57:51;13.25;;;9.63;;
23720;SDS011;42950;52.134;5.578;2022-10-17T09:00:18;12.95;;;10.15;;
23720;SDS011;42950;52.134;5.578;2022-10-17T09:02:52;14.73;;;10.45;;
23720;SDS011;42950;52.134;5.578;2022-10-17T09:11:08;12.07;;;10.05;;
23720;SDS011;42950;52.134;5.578;2022-10-17T09:19:17;11.70;;;10.50;;
23720;SDS011;42950;52.134;5.578;2022-10-17T09:24:50;13.20;;;11.43;;
23720;SDS011;42950;52.134;5.578;2022-10-17T09:27:22;12.07;;;10.77;;
23720;SDS011;42950;52.134;5.578;2022-10-17T09:32:49;16.08;;;10.82;;
23720;SDS011;42950;52.134;5.578;2022-10-17T09:35:15;11.07;;;9.98;;
23720;SDS011;42950;52.134;5.578;2022-10-17T09:37:42;15.32;;;10.57;;
23720;SDS011;42950;52.134;5.578;2022-10-17T09:40:12;12.18;;;9.90;;
23720;SDS011;42950;52.134;5.578;2022-10-17T09:42:45;12.55;;;9.57;;
23720;SDS011;42950;52.134;5.578;2022-10-17T09:48:06;13.18;;;9.98;;
23720;SDS011;42950;52.134;5.578;2022-10-17T09:50:39;13.43;;;10.07;;
23720;SDS011;42950;52.134;5.578;2022-10-17T09:53:11;11.27;;;10.07;;
23720;SDS011;42950;52.134;5.578;2022-10-17T09:55:51;13.98;;;10.73;;
23720;SDS011;42950;52.134;5.578;2022-10-17T09:58:22;11.20;;;9.77;;
23720;SDS011;42950;52.134;5.578;2022-10-17T10:00:48;12.38;;;9.20;;
23720;SDS011;42950;52.134;5.578;2022-10-17T10:06:00;10.32;;;9.25;;
23720;SDS011;42950;52.134;5.578;2022-10-17T10:08:32;9.77;;;8.77;;
23720;SDS011;42950;52.134;5.578;2022-10-17T10:11:04;10.95;;;9.13;;
23720;SDS011;42950;52.134;5.578;2022-10-17T10:13:32;9.25;;;8.35;;
23720;SDS011;42950;52.134;5.578;2022-10-17T10:18:45;13.60;;;9.77;;
23720;SDS011;42950;52.134;5.578;2022-10-17T10:21:16;10.93;;;9.35;;
23720;SDS011;42950;52.134;5.578;2022-10-17T10:24:10;11.48;;;9.68;;
23720;SDS011;42950;52.134;5.578;2022-10-17T10:29:20;10.77;;;9.68;;
23720;SDS011;42950;52.134;5.578;2022-10-17T10:31:55;12.18;;;10.13;;
23720;SDS011;42950;52.134;5.578;2022-10-17T10:34:31;12.88;;;9.90;;
23720;SDS011;42950;52.134;5.578;2022-10-17T10:37:01;11.75;;;10.23;;
23720;SDS011;42950;52.134;5.578;2022-10-17T10:39:40;10.93;;;9.18;;
23720;SDS011;42950;52.134;5.578;2022-10-17T10:44:43;12.60;;;9.23;;
23720;SDS011;42950;52.134;5.578;2022-10-17T10:47:22;10.88;;;8.40;;
23720;SDS011;42950;52.134;5.578;2022-10-17T10:50:16;9.77;;;8.88;;
23720;SDS011;42950;52.134;5.578;2022-10-17T10:52:48;10.32;;;8.75;;
23720;SDS011;42950;52.134;5.578;2022-10-17T10:55:35;9.38;;;8.45;;
23720;SDS011;42950;52.134;5.578;2022-10-17T11:01:01;8.85;;;7.70;;
23720;SDS011;42950;52.134;5.578;2022-10-17T11:03:34;10.68;;;8.50;;
23720;SDS011;42950;52.134;5.578;2022-10-17T11:06:27;8.65;;;7.85;;
23720;SDS011;42950;52.134;5.578;2022-10-17T11:09:02;8.73;;;7.55;;
23720;SDS011;42950;52.134;5.578;2022-10-17T11:11:40;10.02;;;8.00;;
23720;SDS011;42950;52.134;5.578;2022-10-17T11:22:18;8.23;;;7.32;;
23720;SDS011;42950;52.134;5.578;2022-10-17T11:25:02;10.65;;;7.30;;
23720;SDS011;42950;52.134;5.578;2022-10-17T11:27:38;7.93;;;7.13;;
23720;SDS011;42950;52.134;5.578;2022-10-17T11:30:04;8.15;;;7.38;;
23720;SDS011;42950;52.134;5.578;2022-10-17T11:35:31;7.75;;;6.95;;
23720;SDS011;42950;52.134;5.578;2022-10-17T11:38:02;7.32;;;6.63;;
23720;SDS011;42950;52.134;5.578;2022-10-17T11:40:48;11.75;;;7.28;;
23720;SDS011;42950;52.134;5.578;2022-10-17T11:43:37;7.75;;;6.97;;
23720;SDS011;42950;52.134;5.578;2022-10-17T11:46:22;8.48;;;6.75;;
23720;SDS011;42950;52.134;5.578;2022-10-17T11:49:10;10.75;;;6.57;;
23720;SDS011;42950;52.134;5.578;2022-10-17T11:57:02;10.07;;;7.43;;
23720;SDS011;42950;52.134;5.578;2022-10-17T11:59:45;8.20;;;7.35;;
23720;SDS011;42950;52.134;5.578;2022-10-17T12:02:15;7.20;;;6.53;;
23720;SDS011;42950;52.134;5.578;2022-10-17T12:04:56;10.63;;;7.63;;
23720;SDS011;42950;52.134;5.578;2022-10-17T12:12:55;12.80;;;9.82;;
23720;SDS011;42950;52.134;5.578;2022-10-17T12:17:59;8.95;;;7.00;;
23720;SDS011;42950;52.134;5.578;2022-10-17T12:20:28;10.45;;;6.90;;
23720;SDS011;42950;52.134;5.578;2022-10-17T12:23:16;7.47;;;6.72;;
23720;SDS011;42950;52.134;5.578;2022-10-17T12:25:49;8.75;;;7.40;;
23720;SDS011;42950;52.134;5.578;2022-10-17T12:30:54;7.00;;;6.30;;
23720;SDS011;42950;52.134;5.578;2022-10-17T12:33:31;7.50;;;6.53;;
23720;SDS011;42950;52.134;5.578;2022-10-17T12:46:51;7.32;;;6.63;;
23720;SDS011;42950;52.134;5.578;2022-10-17T12:49:46;7.38;;;6.70;;
23720;SDS011;42950;52.134;5.578;2022-10-17T12:53:14;9.02;;;6.75;;
23720;SDS011;42950;52.134;5.578;2022-10-17T12:55:23;7.32;;;6.60;;
23720;SDS011;42950;52.134;5.578;2022-10-17T12:57:54;7.85;;;7.05;;
23720;SDS011;42950;52.134;5.578;2022-10-17T13:03:01;7.20;;;6.60;;
23720;SDS011;42950;52.134;5.578;2022-10-17T13:05:40;10.23;;;7.45;;
23720;SDS011;42950;52.134;5.578;2022-10-17T13:08:14;9.50;;;6.85;;
23720;SDS011;42950;52.134;5.578;2022-10-17T13:10:48;12.88;;;8.02;;
23720;SDS011;42950;52.134;5.578;2022-10-17T13:13:17;8.80;;;7.55;;
23720;SDS011;42950;52.134;5.578;2022-10-17T13:15:51;8.68;;;7.50;;
23720;SDS011;42950;52.134;5.578;2022-10-17T13:18:26;8.18;;;7.38;;
23720;SDS011;42950;52.134;5.578;2022-10-17T13:23:25;14.57;;;7.72;;
23720;SDS011;42950;52.134;5.578;2022-10-17T13:26:04;9.43;;;7.72;;
23720;SDS011;42950;52.134;5.578;2022-10-17T13:28:43;11.13;;;8.07;;
23720;SDS011;42950;52.134;5.578;2022-10-17T13:34:21;9.32;;;8.43;;
23720;SDS011;42950;52.134;5.578;2022-10-17T13:36:53;9.20;;;8.30;;
23720;SDS011;42950;52.134;5.578;2022-10-17T13:39:25;11.68;;;8.32;;
23720;SDS011;42950;52.134;5.578;2022-10-17T13:42:00;8.90;;;8.10;;
23720;SDS011;42950;52.134;5.578;2022-10-17T13:44:27;9.98;;;7.88;;
23720;SDS011;42950;52.134;5.578;2022-10-17T13:46:57;8.40;;;7.60;;
23720;SDS011;42950;52.134;5.578;2022-10-17T13:49:33;8.50;;;7.70;;
23720;SDS011;42950;52.134;5.578;2022-10-17T13:52:06;8.43;;;7.72;;
23720;SDS011;42950;52.134;5.578;2022-10-17T13:54:42;14.27;;;8.18;;
23720;SDS011;42950;52.134;5.578;2022-10-17T13:57:22;11.00;;;8.27;;
23720;SDS011;42950;52.134;5.578;2022-10-17T13:59:50;7.95;;;7.15;;
23720;SDS011;42950;52.134;5.578;2022-10-17T14:02:23;9.75;;;7.60;;
23720;SDS011;42950;52.134;5.578;2022-10-17T14:05:03;9.07;;;8.10;;
23720;SDS011;42950;52.134;5.578;2022-10-17T14:10:23;9.52;;;8.00;;
23720;SDS011;42950;52.134;5.578;2022-10-17T14:12:52;8.38;;;7.57;;
23720;SDS011;42950;52.134;5.578;2022-10-17T14:15:20;8.10;;;7.40;;
23720;SDS011;42950;52.134;5.578;2022-10-17T14:17:53;11.60;;;8.35;;
23720;SDS011;42950;52.134;5.578;2022-10-17T14:20:21;8.20;;;7.40;;
23720;SDS011;42950;52.134;5.578;2022-10-17T14:22:48;10.10;;;7.70;;
23720;SDS011;42950;52.134;5.578;2022-10-17T14:28:01;7.78;;;7.05;;
23720;SDS011;42950;52.134;5.578;2022-10-17T14:30:38;8.13;;;7.38;;
23720;SDS011;42950;52.134;5.578;2022-10-17T14:33:17;7.95;;;6.30;;
23720;SDS011;42950;52.134;5.578;2022-10-17T14:35:50;8.90;;;6.70;;
23720;SDS011;42950;52.134;5.578;2022-10-17T14:38:17;7.70;;;7.00;;
23720;SDS011;42950;52.134;5.578;2022-10-17T14:40:51;7.70;;;6.95;;
23720;SDS011;42950;52.134;5.578;2022-10-17T14:43:21;8.07;;;7.28;;
23720;SDS011;42950;52.134;5.578;2022-10-17T14:45:48;9.20;;;6.85;;
23720;SDS011;42950;52.134;5.578;2022-10-17T14:48:15;8.73;;;6.90;;
23720;SDS011;42950;52.134;5.578;2022-10-17T14:53:41;7.70;;;6.90;;
23720;SDS011;42950;52.134;5.578;2022-10-17T14:56:26;8.95;;;7.28;;
23720;SDS011;42950;52.134;5.578;2022-10-17T14:58:58;8.80;;;7.05;;
23720;SDS011;42950;52.134;5.578;2022-10-17T15:01:26;7.40;;;6.70;;
23720;SDS011;42950;52.134;5.578;2022-10-17T15:03:53;8.88;;;6.80;;
23720;SDS011;42950;52.134;5.578;2022-10-17T15:06:20;8.27;;;7.18;;
23720;SDS011;42950;52.134;5.578;2022-10-17T15:08:50;9.63;;;7.47;;
23720;SDS011;42950;52.134;5.578;2022-10-17T15:11:17;8.50;;;7.75;;
23720;SDS011;42950;52.134;5.578;2022-10-17T15:13:42;11.00;;;7.30;;
23720;SDS011;42950;52.134;5.578;2022-10-17T15:16:17;11.10;;;7.03;;
23720;SDS011;42950;52.134;5.578;2022-10-17T15:18:46;10.57;;;7.63;;
23720;SDS011;42950;52.134;5.578;2022-10-17T15:21:12;9.15;;;8.15;;
23720;SDS011;42950;52.134;5.578;2022-10-17T15:23:39;7.68;;;7.05;;
23720;SDS011;42950;52.134;5.578;2022-10-17T15:26:19;8.77;;;7.10;;
23720;SDS011;42950;52.134;5.578;2022-10-17T15:28:47;7.07;;;6.38;;
23720;SDS011;42950;52.134;5.578;2022-10-17T15:31:21;8.30;;;6.70;;
23720;SDS011;42950;52.134;5.578;2022-10-17T15:33:48;10.13;;;8.00;;
23720;SDS011;42950;52.134;5.578;2022-10-17T15:36:23;7.65;;;6.85;;
23720;SDS011;42950;52.134;5.578;2022-10-17T15:38:49;8.73;;;7.18;;
23720;SDS011;42950;52.134;5.578;2022-10-17T15:41:17;10.40;;;7.45;;
23720;SDS011;42950;52.134;5.578;2022-10-17T15:43:43;9.50;;;8.05;;
23720;SDS011;42950;52.134;5.578;2022-10-17T15:46:11;7.97;;;7.00;;
23720;SDS011;42950;52.134;5.578;2022-10-17T15:48:40;8.77;;;6.95;;
23720;SDS011;42950;52.134;5.578;2022-10-17T15:51:07;8.55;;;7.32;;
23720;SDS011;42950;52.134;5.578;2022-10-17T15:53:33;10.63;;;7.57;;
23720;SDS011;42950;52.134;5.578;2022-10-17T15:55:59;7.75;;;6.85;;
23720;SDS011;42950;52.134;5.578;2022-10-17T15:58:27;10.23;;;7.20;;
23720;SDS011;42950;52.134;5.578;2022-10-17T16:01:04;7.65;;;6.85;;
23720;SDS011;42950;52.134;5.578;2022-10-17T16:03:31;10.93;;;7.40;;
23720;SDS011;42950;52.134;5.578;2022-10-17T16:05:57;9.38;;;7.93;;
23720;SDS011;42950;52.134;5.578;2022-10-17T16:08:23;9.10;;;7.40;;
23720;SDS011;42950;52.134;5.578;2022-10-17T16:10:49;12.95;;;7.30;;
23720;SDS011;42950;52.134;5.578;2022-10-17T16:13:19;8.98;;;7.22;;
23720;SDS011;42950;52.134;5.578;2022-10-17T16:15:48;8.35;;;7.55;;
23720;SDS011;42950;52.134;5.578;2022-10-17T16:18:14;11.18;;;7.50;;
23720;SDS011;42950;52.134;5.578;2022-10-17T16:20:39;10.25;;;7.72;;
23720;SDS011;42950;52.134;5.578;2022-10-17T16:23:05;9.30;;;8.00;;
23720;SDS011;42950;52.134;5.578;2022-10-17T16:25:33;11.30;;;8.07;;
23720;SDS011;42950;52.134;5.578;2022-10-17T16:28:00;11.65;;;7.68;;
23720;SDS011;42950;52.134;5.578;2022-10-17T16:30:26;9.05;;;7.40;;
23720;SDS011;42950;52.134;5.578;2022-10-17T16:32:54;9.52;;;8.52;;
23720;SDS011;42950;52.134;5.578;2022-10-17T16:35:23;9.93;;;7.57;;
23720;SDS011;42950;52.134;5.578;2022-10-17T16:37:52;7.80;;;7.00;;
23720;SDS011;42950;52.134;5.578;2022-10-17T16:40:18;11.95;;;7.95;;
23720;SDS011;42950;52.134;5.578;2022-10-17T16:42:44;8.48;;;7.40;;
23720;SDS011;42950;52.134;5.578;2022-10-17T16:45:18;8.15;;;7.35;;
23720;SDS011;42950;52.134;5.578;2022-10-17T16:47:45;9.32;;;7.25;;
23720;SDS011;42950;52.134;5.578;2022-10-17T16:50:12;11.75;;;8.30;;
23720;SDS011;42950;52.134;5.578;2022-10-17T16:52:38;9.85;;;7.88;;
23720;SDS011;42950;52.134;5.578;2022-10-17T16:55:04;9.52;;;8.48;;
23720;SDS011;42950;52.134;5.578;2022-10-17T16:57:30;9.50;;;8.55;;
23720;SDS011;42950;52.134;5.578;2022-10-17T16:59:57;13.48;;;10.68;;
23720;SDS011;42950;52.134;5.578;2022-10-17T17:02:23;10.88;;;9.13;;
23720;SDS011;42950;52.134;5.578;2022-10-17T17:04:52;11.73;;;8.98;;